Latest METARs, TAFs and NOTAMs for ETSI


---------------------------------------------------------------------------
	(OBSERVATIONS)
ETSI 281420Z 28014G24KT 9999 FEW050 SCT130 23/07 Q1009 BLU+BLU+=
ETSI 281320Z 28017G28KT 9999 FEW050 BKN130 BKN250 23/08 Q1009
    BLU BLU=
---------------------------------------------------------------------------
	(FC)
TAF AMD ETSI 281446Z 2814/2823 25017G27KT 9999 NSW SCT050 SCT130
     BECMG 2817/2819 25008KT 9999 NSW BKN130 BKN220 CANCEL 1600=
---------------------------------------------------------------------------
	(TERMINAL AREA FORECAST)
AMD ETSI 281446Z 2814/2823 25017G27KT 9999 NSW SCT050 SCT130
    BECMG 2817/2819 25008KT 9999 NSW BKN130 BKN220 CANCEL 1600=
---------------------------------------------------------------------------
	(NOTAMS)


ETSI P3673/15 AD ETSI: LIMITED RADAR COVERAGE BELOW 5000FT MSL
    DETAILED INFORMATION BY INGO RADAR. 22 MAY 06:40 2015 UNTIL
    21 AUG 12:00 2015. CREATED: 22 MAY 06:42 2015

ETSI P3675/15 AD ETSI: TACAN APCH RWY07R SUSPENDED. 22 MAY 06:41
    2015 UNTIL 21 AUG 12:00 2015. CREATED: 22 MAY 06:44 2015

ETSI P3677/15 AD ETSI: PAR RWY25R/07L OUT OF SERVICE. 22 MAY
    06:45 2015 UNTIL 21 AUG 12:00 2015. CREATED: 22 MAY 06:48
    2015

ETSI P3678/15 AD ETSI: NO SRA POSSIBLE. 22 MAY 06:43 2015 UNTIL
    21 AUG 12:00 2015. CREATED: 22 MAY 06:49 2015

ETSI P3679/15 AD ETSI: PAR RWY25L/07R OUT OF SERVICE. 22 MAY
    06:47 2015 UNTIL 21 AUG 12:00 2015. CREATED: 22 MAY 06:56
    2015

ETSI P4873/15 AD ETSI: CABLE NO. 2 RWY25R AND CABLE NO. 1 RWY07L
    U/S. 10 JUL 10:50 2015 UNTIL 07 AUG 12:00 2015. CREATED:
    10 JUL 10:56 2015

ETSI P5214/15 AD ETSI: AERODROME CLOSED EXCEPT CIVIL AIR TRAFFIC
    WITH PPR. 03 AUG 07:00 2015 UNTIL 03 AUG 15:00 2015. CREATED:
    27 JUL 11:55 2015

ETSI P5215/15 AD ETSI: AERODROME CLOSED EXCEPT CIVIL AIR TRAFFIC
    WITH PPR. 07 AUG 07:00 2015 UNTIL 07 AUG 12:00 2015. CREATED:
    27 JUL 11:56 2015

---------------------------------------------------------------------------